createdAt,value
2019-05-20T00:01:47.840Z,98753.45
2019-05-20T00:06:51.042Z,98739.28
2019-05-20T00:11:54.356Z,98742.55
2019-05-20T00:16:57.574Z,98730.83
2019-05-20T00:22:00.820Z,98720.21
2019-05-20T00:27:04.044Z,98716.66
2019-05-20T00:32:07.256Z,98715.30
2019-05-20T00:37:10.476Z,98718.28
2019-05-20T00:42:13.697Z,98719.11
2019-05-20T00:47:16.894Z,98717.48
2019-05-20T00:52:20.102Z,98724.01
2019-05-20T00:57:23.329Z,98716.66
2019-05-20T01:02:26.537Z,98719.38
2019-05-20T01:07:29.743Z,98710.38
2019-05-20T01:12:32.941Z,98713.40
2019-05-20T01:17:36.176Z,98706.30
2019-05-20T01:22:39.392Z,98717.48
2019-05-20T01:27:42.580Z,98714.77
2019-05-20T01:32:45.984Z,98716.66
2019-05-20T01:37:49.187Z,98712.58
2019-05-20T01:42:52.422Z,98700.02
2019-05-20T01:47:55.657Z,98688.59
2019-05-20T01:52:58.858Z,98684.50
2019-05-20T01:58:02.163Z,98698.66
2019-05-20T02:03:05.384Z,98703.86
2019-05-20T02:08:08.601Z,98697.59
2019-05-20T02:13:11.805Z,98682.85
2019-05-20T02:18:15.034Z,98676.33
2019-05-20T02:23:18.244Z,98674.68
2019-05-20T02:28:21.458Z,98672.24
2019-05-20T02:33:24.669Z,98659.70
2019-05-20T02:38:27.883Z,98656.44
2019-05-20T02:43:31.102Z,98657.80
2019-05-20T02:48:34.303Z,98653.17
2019-05-20T02:53:37.514Z,98641.45
2019-05-20T02:58:40.721Z,98645.54
2019-05-20T03:03:43.928Z,98638.72
2019-05-20T03:08:47.138Z,98639.55
2019-05-20T03:13:50.347Z,98640.62
2019-05-20T03:18:53.571Z,98640.91
2019-05-20T03:23:56.761Z,98639.27
2019-05-20T03:28:59.970Z,98637.91
2019-05-20T03:34:03.279Z,98646.91
2019-05-20T03:39:06.938Z,98650.16
2019-05-20T03:44:10.146Z,98643.34
2019-05-20T03:49:13.366Z,98641.98
2019-05-20T03:54:16.589Z,98647.44
2019-05-20T03:59:19.793Z,98647.97
2019-05-20T04:04:25.124Z,98654.78
2019-05-20T04:09:27.950Z,98649.63
2019-05-20T04:14:31.154Z,98646.91
2019-05-20T04:19:34.371Z,98640.62
2019-05-20T04:24:37.582Z,98649.08
2019-05-20T04:29:40.795Z,98657.27
2019-05-20T04:34:44.021Z,98654.53
2019-05-20T04:39:47.228Z,98650.45
2019-05-20T04:44:50.428Z,98643.64
2019-05-20T04:49:53.664Z,98648.55
2019-05-20T04:54:56.863Z,98642.28
2019-05-20T05:00:00.065Z,98635.19
2019-05-20T05:05:03.757Z,98637.12
2019-05-20T05:10:07.769Z,98635.75
2019-05-20T05:15:11.139Z,98638.73
2019-05-20T05:20:18.160Z,98638.19
2019-05-20T05:25:19.460Z,98640.63
2019-05-20T05:30:22.657Z,98642.82
2019-05-20T05:35:25.864Z,98646.91
2019-05-20T05:40:30.825Z,98633.58
2019-05-20T05:45:34.267Z,98643.64
2019-05-20T05:50:37.476Z,98638.20
2019-05-20T05:55:40.696Z,98644.47
2019-05-20T06:00:43.907Z,98635.76
2019-05-20T06:05:47.104Z,98634.66
2019-05-20T06:10:50.475Z,98618.88
2019-05-20T06:15:54.661Z,98620.49
2019-05-20T06:20:58.075Z,98627.30
2019-05-20T06:26:01.364Z,98629.20
2019-05-20T06:31:04.569Z,98636.30
2019-05-20T06:36:07.783Z,98628.95
2019-05-20T06:41:11.002Z,98622.97
2019-05-20T06:46:14.194Z,98623.76
2019-05-20T06:51:17.420Z,98626.48
2019-05-20T06:56:20.659Z,98621.03
2019-05-20T07:01:23.872Z,98631.14
2019-05-20T07:06:44.110Z,98634.13
2019-05-20T07:11:32.030Z,98633.59
2019-05-20T07:16:35.237Z,98632.76
2019-05-20T07:21:38.444Z,98639.03
2019-05-20T07:26:41.668Z,98630.61
2019-05-20T07:31:44.865Z,98624.34
2019-05-20T07:37:02.014Z,98630.86
2019-05-20T07:41:53.026Z,98624.59
2019-05-20T07:46:56.253Z,98626.23
2019-05-20T07:51:59.449Z,98614.80
2019-05-20T07:57:04.805Z,98607.16
2019-05-20T08:02:08.490Z,98610.72
2019-05-20T08:07:26.901Z,98616.99
2019-05-20T08:12:16.642Z,98615.63
2019-05-20T08:17:19.836Z,98614.80
2019-05-20T08:22:23.045Z,98619.17
2019-05-20T08:27:26.251Z,98620.54
2019-05-20T08:32:29.533Z,98616.45
2019-05-20T08:37:44.768Z,98617.53
2019-05-20T08:42:37.760Z,98623.27
2019-05-20T08:47:40.918Z,98627.35
2019-05-20T08:52:44.134Z,98631.16
2019-05-20T08:57:47.358Z,98637.14
2019-05-20T09:02:51.298Z,98637.97
2019-05-20T09:08:02.906Z,98637.68
2019-05-20T09:12:59.451Z,98627.07
2019-05-20T09:18:02.670Z,98629.51
2019-05-20T09:23:05.915Z,98628.44
2019-05-20T09:28:09.076Z,98628.44
2019-05-20T09:33:12.295Z,98621.62
2019-05-20T09:38:20.819Z,98615.09
2019-05-20T09:43:20.440Z,98615.09
2019-05-20T09:48:25.177Z,98608.53
2019-05-20T09:53:28.600Z,98615.63
2019-05-20T09:58:31.796Z,98619.72
2019-05-20T10:03:35.035Z,98611.27
2019-05-20T10:08:44.442Z,98606.92
2019-05-20T10:13:43.148Z,98596.27
2019-05-20T10:18:46.453Z,98598.46
2019-05-20T10:23:49.665Z,98600.11
2019-05-20T10:28:52.878Z,98611.02
2019-05-20T10:33:56.094Z,98602.30
2019-05-20T10:38:59.724Z,98591.39
2019-05-20T10:44:03.280Z,98588.92
2019-05-20T10:49:06.486Z,98586.73
2019-05-20T10:54:09.696Z,98599.29
2019-05-20T10:59:12.913Z,98593.55
2019-05-20T11:04:16.118Z,98596.56
2019-05-20T11:09:19.330Z,98605.28
2019-05-20T11:14:22.566Z,98617.54
2019-05-20T11:19:25.809Z,98619.73
2019-05-20T11:24:29.009Z,98623.81
2019-05-20T11:29:32.219Z,98634.72
2019-05-20T11:34:35.476Z,98642.89
2019-05-20T11:39:38.694Z,98629.80
2019-05-20T11:44:41.893Z,98623.28
2019-05-20T11:49:45.107Z,98626.00
2019-05-20T11:54:48.300Z,98631.74
2019-05-20T11:59:51.514Z,98630.38
2019-05-20T12:04:54.716Z,98621.63
2019-05-20T12:09:57.917Z,98621.38
2019-05-20T12:15:01.524Z,98620.02
2019-05-20T12:20:11.417Z,98623.82
2019-05-20T12:25:14.104Z,98609.41
2019-05-20T12:30:17.309Z,98614.86
2019-05-20T12:35:20.503Z,98614.86
2019-05-20T12:40:23.706Z,98607.47
2019-05-20T12:45:26.912Z,98606.94
2019-05-20T12:50:30.112Z,98604.20
2019-05-20T12:55:33.312Z,98600.41
2019-05-20T13:00:36.530Z,98588.14
2019-05-20T13:05:39.734Z,98573.69
2019-05-20T13:10:42.986Z,98566.34
2019-05-20T13:15:46.508Z,98571.79
2019-05-20T13:20:49.708Z,98551.34
2019-05-20T13:25:52.925Z,98561.14
2019-05-20T13:30:56.150Z,98553.79
2019-05-20T13:35:59.358Z,98552.96
2019-05-20T13:41:02.575Z,98550.81
2019-05-20T13:46:05.788Z,98538.55
2019-05-20T13:51:09.034Z,98526.81
2019-05-20T13:56:12.233Z,98530.37
2019-05-20T14:01:15.441Z,98519.47
2019-05-20T14:06:18.637Z,98508.81
2019-05-20T14:11:33.877Z,98534.70
2019-05-20T14:16:26.791Z,98541.52
2019-05-20T14:21:30.000Z,98544.25
2019-05-20T14:26:33.212Z,98548.34
2019-05-20T14:31:36.421Z,98553.79
2019-05-20T14:36:40.454Z,98562.25
2019-05-20T14:41:43.930Z,98562.79
2019-05-20T14:46:47.129Z,98574.23
2019-05-20T14:51:50.343Z,98578.60
2019-05-20T14:56:53.553Z,98576.70
2019-05-20T15:01:56.753Z,98576.95
2019-05-20T15:06:59.958Z,98575.59
2019-05-20T15:12:03.225Z,98581.05
2019-05-20T15:17:06.452Z,98579.14
2019-05-20T15:22:09.677Z,98575.34
2019-05-20T15:27:12.922Z,98570.97
2019-05-20T15:32:16.117Z,98566.88
2019-05-20T15:37:19.326Z,98566.05
2019-05-20T15:42:22.612Z,98571.50
2019-05-20T15:47:25.821Z,98571.25
2019-05-20T15:52:29.130Z,98564.44
2019-05-20T15:57:32.417Z,98562.79
2019-05-20T16:02:35.911Z,98563.61
2019-05-20T16:07:39.084Z,98576.16
2019-05-20T16:12:42.291Z,98578.06
2019-05-20T16:17:48.185Z,98590.05
2019-05-20T16:22:50.432Z,98589.80
2019-05-20T16:27:53.651Z,98593.59
2019-05-20T16:37:59.109Z,98580.80
2019-05-20T16:48:04.681Z,98572.33
2019-05-20T16:53:07.884Z,98575.34
2019-05-20T16:58:11.098Z,98577.53
2019-05-20T17:13:18.838Z,98580.50
2019-05-20T17:28:27.436Z,98570.42
2019-05-20T17:33:30.658Z,98574.52
2019-05-20T17:38:33.870Z,98581.87
2019-05-20T17:43:37.098Z,98566.34
2019-05-20T17:48:40.318Z,98567.45
2019-05-20T17:53:43.524Z,98572.91
2019-05-20T17:58:46.736Z,98569.89
2019-05-20T18:03:49.956Z,98564.72
2019-05-20T18:08:54.804Z,98561.17
2019-05-20T18:13:58.023Z,98558.98
2019-05-20T18:19:01.240Z,98556.27
2019-05-20T18:24:04.536Z,98545.08
2019-05-20T18:29:07.736Z,98551.34
2019-05-20T18:34:10.956Z,98545.89
2019-05-20T18:39:14.169Z,98557.08
2019-05-20T18:44:17.376Z,98552.71
2019-05-20T18:49:20.586Z,98556.80
2019-05-20T18:54:23.793Z,98553.25
2019-05-20T18:59:27.008Z,98545.08
2019-05-20T19:04:30.216Z,98547.55
2019-05-20T19:09:33.441Z,98569.35
2019-05-20T19:24:41.222Z,98579.43
2019-05-20T19:29:44.397Z,98579.43
2019-05-20T19:34:47.606Z,98584.34
2019-05-20T19:44:53.168Z,98603.13
2019-05-20T19:49:56.369Z,98601.23
2019-05-20T19:54:59.607Z,98604.50
2019-05-20T20:00:03.589Z,98602.31
2019-05-20T20:05:09.582Z,98593.05
2019-05-20T20:10:12.172Z,98592.77
2019-05-20T20:15:19.635Z,98596.03
2019-05-20T20:20:22.830Z,98596.32
2019-05-20T20:25:26.106Z,98593.31
2019-05-20T20:30:29.325Z,98586.24
2019-05-20T20:35:38.041Z,98578.60
2019-05-20T20:40:37.494Z,98579.42
2019-05-20T20:45:40.705Z,98568.23
2019-05-20T20:50:44.195Z,98571.25
2019-05-20T20:55:47.423Z,98569.89
2019-05-20T21:00:50.639Z,98571.50
2019-05-20T21:05:53.850Z,98566.88
2019-05-20T21:10:57.079Z,98569.89
2019-05-20T21:16:00.297Z,98577.78
2019-05-20T21:21:03.506Z,98579.68
2019-05-20T21:26:06.733Z,98581.05
2019-05-20T21:31:09.947Z,98569.31
2019-05-20T21:36:13.153Z,98583.52
2019-05-20T21:41:16.379Z,98593.30
2019-05-20T21:46:19.590Z,98596.31
2019-05-20T21:51:22.823Z,98595.78
2019-05-20T21:56:26.038Z,98599.05
2019-05-20T22:01:29.263Z,98601.77
2019-05-20T22:06:32.478Z,98600.95
2019-05-20T22:11:35.714Z,98606.39
2019-05-20T22:16:38.929Z,98617.83
2019-05-20T22:21:43.786Z,98615.94
2019-05-20T22:26:46.983Z,98625.47
2019-05-20T22:31:50.226Z,98620.56
2019-05-20T22:36:53.432Z,98625.75
2019-05-20T22:41:56.643Z,98618.38
2019-05-20T22:46:59.875Z,98612.66
2019-05-20T22:52:03.087Z,98618.94
2019-05-20T22:57:06.289Z,98600.94
2019-05-20T23:02:09.533Z,98609.66
2019-05-20T23:07:12.724Z,98611.02
2019-05-20T23:12:15.938Z,98608.83
2019-05-20T23:17:19.137Z,98609.12
2019-05-20T23:22:22.363Z,98605.56
2019-05-20T23:27:25.566Z,98591.66
2019-05-20T23:32:28.786Z,98585.13
2019-05-20T23:37:31.987Z,98588.67
2019-05-20T23:42:35.211Z,98595.49
2019-05-20T23:47:38.423Z,98590.29
2019-05-20T23:52:41.651Z,98602.02
2019-05-20T23:57:44.868Z,98596.56
